sensor_id;sensor_type;location;lat;lon;timestamp;temperature;humidity
19567;DHT22;9930;49.240;8.548;2023-04-06T00:01:25;5.30;52.90
19567;DHT22;9930;49.240;8.548;2023-04-06T00:03:55;5.30;53.00
19567;DHT22;9930;49.240;8.548;2023-04-06T00:06:21;5.20;53.00
19567;DHT22;9930;49.240;8.548;2023-04-06T00:08:47;5.20;53.00
19567;DHT22;9930;49.240;8.548;2023-04-06T00:11:17;5.20;53.10
19567;DHT22;9930;49.240;8.548;2023-04-06T00:13:44;5.20;53.20
19567;DHT22;9930;49.240;8.548;2023-04-06T00:16:10;5.20;53.30
19567;DHT22;9930;49.240;8.548;2023-04-06T00:18:37;5.20;53.40
19567;DHT22;9930;49.240;8.548;2023-04-06T00:21:03;5.20;53.50
19567;DHT22;9930;49.240;8.548;2023-04-06T00:23:31;5.20;53.60
19567;DHT22;9930;49.240;8.548;2023-04-06T00:25:57;5.10;53.60
19567;DHT22;9930;49.240;8.548;2023-04-06T00:28:23;5.10;53.60
19567;DHT22;9930;49.240;8.548;2023-04-06T00:30:54;5.10;53.70
19567;DHT22;9930;49.240;8.548;2023-04-06T00:33:23;5.10;53.80
19567;DHT22;9930;49.240;8.548;2023-04-06T00:35:51;5.10;53.80
19567;DHT22;9930;49.240;8.548;2023-04-06T00:38:17;5.00;53.80
19567;DHT22;9930;49.240;8.548;2023-04-06T00:40:46;5.00;53.80
19567;DHT22;9930;49.240;8.548;2023-04-06T00:43:14;5.00;53.90
19567;DHT22;9930;49.240;8.548;2023-04-06T00:45:42;5.00;53.90
19567;DHT22;9930;49.240;8.548;2023-04-06T00:48:11;5.00;54.10
19567;DHT22;9930;49.240;8.548;2023-04-06T00:50:43;5.00;54.20
19567;DHT22;9930;49.240;8.548;2023-04-06T00:53:14;4.90;54.30
19567;DHT22;9930;49.240;8.548;2023-04-06T00:55:40;4.90;54.20
19567;DHT22;9930;49.240;8.548;2023-04-06T00:58:06;4.90;54.40
19567;DHT22;9930;49.240;8.548;2023-04-06T01:00:35;4.90;54.40
19567;DHT22;9930;49.240;8.548;2023-04-06T01:03:01;4.90;54.40
19567;DHT22;9930;49.240;8.548;2023-04-06T01:05:34;4.90;54.50
19567;DHT22;9930;49.240;8.548;2023-04-06T01:08:00;4.90;54.70
19567;DHT22;9930;49.240;8.548;2023-04-06T01:10:28;4.80;54.60
19567;DHT22;9930;49.240;8.548;2023-04-06T01:12:54;4.80;54.70
19567;DHT22;9930;49.240;8.548;2023-04-06T01:15:23;4.80;54.80
19567;DHT22;9930;49.240;8.548;2023-04-06T01:17:52;4.80;54.80
19567;DHT22;9930;49.240;8.548;2023-04-06T01:20:21;4.70;54.60
19567;DHT22;9930;49.240;8.548;2023-04-06T01:22:47;4.70;54.60
19567;DHT22;9930;49.240;8.548;2023-04-06T01:25:13;4.70;54.80
19567;DHT22;9930;49.240;8.548;2023-04-06T01:27:38;4.60;54.80
19567;DHT22;9930;49.240;8.548;2023-04-06T01:30:08;4.60;54.80
19567;DHT22;9930;49.240;8.548;2023-04-06T01:32:34;4.60;55.10
19567;DHT22;9930;49.240;8.548;2023-04-06T01:35:03;4.60;55.10
19567;DHT22;9930;49.240;8.548;2023-04-06T01:37:29;4.60;55.20
19567;DHT22;9930;49.240;8.548;2023-04-06T01:39:57;4.60;55.20
19567;DHT22;9930;49.240;8.548;2023-04-06T01:42:23;4.50;55.20
19567;DHT22;9930;49.240;8.548;2023-04-06T01:44:51;4.50;55.30
19567;DHT22;9930;49.240;8.548;2023-04-06T01:47:17;4.50;55.40
19567;DHT22;9930;49.240;8.548;2023-04-06T01:49:45;4.50;55.40
19567;DHT22;9930;49.240;8.548;2023-04-06T01:52:10;4.50;55.30
19567;DHT22;9930;49.240;8.548;2023-04-06T01:54:39;4.50;55.40
19567;DHT22;9930;49.240;8.548;2023-04-06T01:57:07;4.40;55.40
19567;DHT22;9930;49.240;8.548;2023-04-06T01:59:35;4.50;55.50
19567;DHT22;9930;49.240;8.548;2023-04-06T02:02:01;4.50;55.50
19567;DHT22;9930;49.240;8.548;2023-04-06T02:04:26;4.40;55.50
19567;DHT22;9930;49.240;8.548;2023-04-06T02:06:55;4.40;55.60
19567;DHT22;9930;49.240;8.548;2023-04-06T02:09:20;4.40;55.70
19567;DHT22;9930;49.240;8.548;2023-04-06T02:11:46;4.30;55.80
19567;DHT22;9930;49.240;8.548;2023-04-06T02:14:14;4.30;55.90
19567;DHT22;9930;49.240;8.548;2023-04-06T02:16:40;4.30;55.90
19567;DHT22;9930;49.240;8.548;2023-04-06T02:19:06;4.20;55.80
19567;DHT22;9930;49.240;8.548;2023-04-06T02:21:32;4.20;55.90
19567;DHT22;9930;49.240;8.548;2023-04-06T02:24:01;4.20;56.00
19567;DHT22;9930;49.240;8.548;2023-04-06T02:26:27;4.20;56.10
19567;DHT22;9930;49.240;8.548;2023-04-06T02:28:52;4.10;56.20
19567;DHT22;9930;49.240;8.548;2023-04-06T02:31:18;4.10;56.30
19567;DHT22;9930;49.240;8.548;2023-04-06T02:33:46;4.10;56.40
19567;DHT22;9930;49.240;8.548;2023-04-06T02:36:12;4.10;56.40
19567;DHT22;9930;49.240;8.548;2023-04-06T02:38:41;4.10;56.50
19567;DHT22;9930;49.240;8.548;2023-04-06T02:41:07;4.10;56.60
19567;DHT22;9930;49.240;8.548;2023-04-06T02:43:40;4.10;56.60
19567;DHT22;9930;49.240;8.548;2023-04-06T02:46:08;4.10;56.40
19567;DHT22;9930;49.240;8.548;2023-04-06T02:48:34;4.00;56.60
19567;DHT22;9930;49.240;8.548;2023-04-06T02:51:02;4.00;56.60
19567;DHT22;9930;49.240;8.548;2023-04-06T02:53:30;4.00;56.50
19567;DHT22;9930;49.240;8.548;2023-04-06T02:55:56;4.00;56.60
19567;DHT22;9930;49.240;8.548;2023-04-06T02:58:23;4.00;56.90
19567;DHT22;9930;49.240;8.548;2023-04-06T03:00:49;4.00;56.80
19567;DHT22;9930;49.240;8.548;2023-04-06T03:03:15;3.90;56.80
19567;DHT22;9930;49.240;8.548;2023-04-06T03:05:46;3.90;56.90
19567;DHT22;9930;49.240;8.548;2023-04-06T03:08:12;4.00;57.60
19567;DHT22;9930;49.240;8.548;2023-04-06T03:10:43;3.90;56.80
19567;DHT22;9930;49.240;8.548;2023-04-06T03:13:08;3.90;56.90
19567;DHT22;9930;49.240;8.548;2023-04-06T03:15:37;3.90;56.90
19567;DHT22;9930;49.240;8.548;2023-04-06T03:18:03;3.90;56.80
19567;DHT22;9930;49.240;8.548;2023-04-06T03:20:28;3.90;56.70
19567;DHT22;9930;49.240;8.548;2023-04-06T03:22:54;3.90;57.00
19567;DHT22;9930;49.240;8.548;2023-04-06T03:25:21;3.90;57.00
19567;DHT22;9930;49.240;8.548;2023-04-06T03:27:46;3.80;57.10
19567;DHT22;9930;49.240;8.548;2023-04-06T03:30:15;3.90;57.20
19567;DHT22;9930;49.240;8.548;2023-04-06T03:32:46;3.90;57.30
19567;DHT22;9930;49.240;8.548;2023-04-06T03:35:11;3.80;57.20
19567;DHT22;9930;49.240;8.548;2023-04-06T03:37:37;3.90;57.30
19567;DHT22;9930;49.240;8.548;2023-04-06T03:40:11;3.80;57.30
19567;DHT22;9930;49.240;8.548;2023-04-06T03:42:40;3.80;57.20
19567;DHT22;9930;49.240;8.548;2023-04-06T03:45:10;3.80;57.20
19567;DHT22;9930;49.240;8.548;2023-04-06T03:47:40;3.80;57.30
19567;DHT22;9930;49.240;8.548;2023-04-06T03:50:08;3.80;57.30
19567;DHT22;9930;49.240;8.548;2023-04-06T03:52:35;3.70;57.30
19567;DHT22;9930;49.240;8.548;2023-04-06T03:55:01;3.70;57.40
19567;DHT22;9930;49.240;8.548;2023-04-06T03:57:30;3.70;57.50
19567;DHT22;9930;49.240;8.548;2023-04-06T03:59:55;3.70;57.50
19567;DHT22;9930;49.240;8.548;2023-04-06T04:02:21;3.60;57.50
19567;DHT22;9930;49.240;8.548;2023-04-06T04:04:47;3.70;57.60
19567;DHT22;9930;49.240;8.548;2023-04-06T04:07:13;3.70;57.60
19567;DHT22;9930;49.240;8.548;2023-04-06T04:09:41;3.60;57.60
19567;DHT22;9930;49.240;8.548;2023-04-06T04:12:10;3.60;57.70
19567;DHT22;9930;49.240;8.548;2023-04-06T04:14:36;3.50;57.60
19567;DHT22;9930;49.240;8.548;2023-04-06T04:17:03;3.60;57.60
19567;DHT22;9930;49.240;8.548;2023-04-06T04:19:28;3.60;57.70
19567;DHT22;9930;49.240;8.548;2023-04-06T04:21:54;3.60;57.70
19567;DHT22;9930;49.240;8.548;2023-04-06T04:24:20;3.50;57.70
19567;DHT22;9930;49.240;8.548;2023-04-06T04:26:46;3.50;58.30
19567;DHT22;9930;49.240;8.548;2023-04-06T04:29:11;3.50;57.70
19567;DHT22;9930;49.240;8.548;2023-04-06T04:31:43;3.50;57.80
19567;DHT22;9930;49.240;8.548;2023-04-06T04:34:11;3.50;57.80
19567;DHT22;9930;49.240;8.548;2023-04-06T04:36:39;3.50;57.90
19567;DHT22;9930;49.240;8.548;2023-04-06T04:39:12;3.50;57.90
19567;DHT22;9930;49.240;8.548;2023-04-06T04:41:40;3.50;58.00
19567;DHT22;9930;49.240;8.548;2023-04-06T04:44:10;3.50;58.00
19567;DHT22;9930;49.240;8.548;2023-04-06T04:46:38;3.40;57.90
19567;DHT22;9930;49.240;8.548;2023-04-06T04:49:04;3.40;57.90
19567;DHT22;9930;49.240;8.548;2023-04-06T04:51:30;3.40;58.00
19567;DHT22;9930;49.240;8.548;2023-04-06T04:53:59;3.40;58.10
19567;DHT22;9930;49.240;8.548;2023-04-06T04:56:27;3.40;58.20
19567;DHT22;9930;49.240;8.548;2023-04-06T04:58:55;3.40;58.30
19567;DHT22;9930;49.240;8.548;2023-04-06T05:01:21;3.40;58.40
19567;DHT22;9930;49.240;8.548;2023-04-06T05:03:49;3.40;58.30
19567;DHT22;9930;49.240;8.548;2023-04-06T05:06:17;3.40;58.30
19567;DHT22;9930;49.240;8.548;2023-04-06T05:08:46;3.40;58.40
19567;DHT22;9930;49.240;8.548;2023-04-06T05:11:11;3.40;58.40
19567;DHT22;9930;49.240;8.548;2023-04-06T05:13:40;3.40;58.50
19567;DHT22;9930;49.240;8.548;2023-04-06T05:16:08;3.40;58.50
19567;DHT22;9930;49.240;8.548;2023-04-06T05:18:38;3.40;58.50
19567;DHT22;9930;49.240;8.548;2023-04-06T05:21:04;3.40;58.40
19567;DHT22;9930;49.240;8.548;2023-04-06T05:23:32;3.40;58.50
19567;DHT22;9930;49.240;8.548;2023-04-06T05:25:58;3.40;58.40
19567;DHT22;9930;49.240;8.548;2023-04-06T05:28:24;3.40;58.60
19567;DHT22;9930;49.240;8.548;2023-04-06T05:30:50;3.50;58.70
19567;DHT22;9930;49.240;8.548;2023-04-06T05:33:16;3.50;58.80
19567;DHT22;9930;49.240;8.548;2023-04-06T05:35:44;3.50;58.80
19567;DHT22;9930;49.240;8.548;2023-04-06T05:38:12;3.50;58.90
19567;DHT22;9930;49.240;8.548;2023-04-06T05:40:43;3.50;58.90
19567;DHT22;9930;49.240;8.548;2023-04-06T05:43:09;3.50;59.00
19567;DHT22;9930;49.240;8.548;2023-04-06T05:45:35;3.60;59.00
19567;DHT22;9930;49.240;8.548;2023-04-06T05:48:02;3.50;59.10
19567;DHT22;9930;49.240;8.548;2023-04-06T05:50:28;3.60;59.20
19567;DHT22;9930;49.240;8.548;2023-04-06T05:52:54;3.60;59.20
19567;DHT22;9930;49.240;8.548;2023-04-06T05:55:22;3.70;59.30
19567;DHT22;9930;49.240;8.548;2023-04-06T05:57:48;3.70;59.50
19567;DHT22;9930;49.240;8.548;2023-04-06T06:00:14;3.80;59.50
19567;DHT22;9930;49.240;8.548;2023-04-06T06:02:40;3.80;59.60
19567;DHT22;9930;49.240;8.548;2023-04-06T06:05:08;3.90;59.60
19567;DHT22;9930;49.240;8.548;2023-04-06T06:07:35;3.90;59.60
19567;DHT22;9930;49.240;8.548;2023-04-06T06:10:01;4.00;59.80
19567;DHT22;9930;49.240;8.548;2023-04-06T06:12:27;4.10;59.70
19567;DHT22;9930;49.240;8.548;2023-04-06T06:14:55;4.10;59.80
19567;DHT22;9930;49.240;8.548;2023-04-06T06:17:21;4.20;59.90
19567;DHT22;9930;49.240;8.548;2023-04-06T06:19:47;4.20;59.80
19567;DHT22;9930;49.240;8.548;2023-04-06T06:22:13;4.30;59.70
19567;DHT22;9930;49.240;8.548;2023-04-06T06:24:42;4.40;59.80
19567;DHT22;9930;49.240;8.548;2023-04-06T06:27:10;4.50;59.90
19567;DHT22;9930;49.240;8.548;2023-04-06T06:29:38;4.50;59.90
19567;DHT22;9930;49.240;8.548;2023-04-06T06:32:07;4.60;60.00
19567;DHT22;9930;49.240;8.548;2023-04-06T06:34:37;4.80;60.20
19567;DHT22;9930;49.240;8.548;2023-04-06T06:37:05;4.90;60.60
19567;DHT22;9930;49.240;8.548;2023-04-06T06:39:33;5.10;60.90
19567;DHT22;9930;49.240;8.548;2023-04-06T06:41:59;5.30;61.00
19567;DHT22;9930;49.240;8.548;2023-04-06T06:44:27;5.50;61.10
19567;DHT22;9930;49.240;8.548;2023-04-06T06:46:55;5.80;61.20
19567;DHT22;9930;49.240;8.548;2023-04-06T06:49:24;6.10;61.10
19567;DHT22;9930;49.240;8.548;2023-04-06T06:51:52;6.40;60.80
19567;DHT22;9930;49.240;8.548;2023-04-06T06:54:18;6.60;60.60
19567;DHT22;9930;49.240;8.548;2023-04-06T06:56:48;6.90;60.20
19567;DHT22;9930;49.240;8.548;2023-04-06T06:59:14;7.10;60.60
19567;DHT22;9930;49.240;8.548;2023-04-06T07:01:41;7.30;59.70
19567;DHT22;9930;49.240;8.548;2023-04-06T07:04:10;7.50;59.40
19567;DHT22;9930;49.240;8.548;2023-04-06T07:06:36;7.70;59.20
19567;DHT22;9930;49.240;8.548;2023-04-06T07:09:03;7.80;58.90
19567;DHT22;9930;49.240;8.548;2023-04-06T07:11:29;8.00;58.90
19567;DHT22;9930;49.240;8.548;2023-04-06T07:13:57;8.10;58.60
19567;DHT22;9930;49.240;8.548;2023-04-06T07:16:25;8.20;58.50
19567;DHT22;9930;49.240;8.548;2023-04-06T07:18:51;8.40;58.40
19567;DHT22;9930;49.240;8.548;2023-04-06T07:21:17;8.50;58.30
19567;DHT22;9930;49.240;8.548;2023-04-06T07:23:47;8.60;58.00
19567;DHT22;9930;49.240;8.548;2023-04-06T07:26:18;8.70;57.80
19567;DHT22;9930;49.240;8.548;2023-04-06T07:28:46;8.80;57.60
19567;DHT22;9930;49.240;8.548;2023-04-06T07:31:12;8.80;57.50
19567;DHT22;9930;49.240;8.548;2023-04-06T07:33:40;8.90;57.50
19567;DHT22;9930;49.240;8.548;2023-04-06T07:36:06;9.00;57.50
19567;DHT22;9930;49.240;8.548;2023-04-06T07:38:32;9.00;57.30
19567;DHT22;9930;49.240;8.548;2023-04-06T07:40:58;9.10;57.20
19567;DHT22;9930;49.240;8.548;2023-04-06T07:43:24;9.10;57.30
19567;DHT22;9930;49.240;8.548;2023-04-06T07:45:50;9.20;57.20
19567;DHT22;9930;49.240;8.548;2023-04-06T07:48:19;9.30;57.20
19567;DHT22;9930;49.240;8.548;2023-04-06T07:50:44;9.30;57.00
19567;DHT22;9930;49.240;8.548;2023-04-06T07:53:10;9.40;57.00
19567;DHT22;9930;49.240;8.548;2023-04-06T07:55:37;9.50;57.00
19567;DHT22;9930;49.240;8.548;2023-04-06T07:58:03;9.60;56.90
19567;DHT22;9930;49.240;8.548;2023-04-06T08:00:30;9.60;56.70
19567;DHT22;9930;49.240;8.548;2023-04-06T08:02:55;9.60;57.20
19567;DHT22;9930;49.240;8.548;2023-04-06T08:05:21;9.70;56.40
19567;DHT22;9930;49.240;8.548;2023-04-06T08:07:50;9.70;56.40
19567;DHT22;9930;49.240;8.548;2023-04-06T08:10:15;9.70;56.40
19567;DHT22;9930;49.240;8.548;2023-04-06T08:12:41;9.80;56.40
19567;DHT22;9930;49.240;8.548;2023-04-06T08:15:14;9.90;56.50
19567;DHT22;9930;49.240;8.548;2023-04-06T08:17:44;9.90;56.50
19567;DHT22;9930;49.240;8.548;2023-04-06T08:20:14;10.00;56.50
19567;DHT22;9930;49.240;8.548;2023-04-06T08:22:43;10.10;56.20
19567;DHT22;9930;49.240;8.548;2023-04-06T08:25:11;10.20;56.10
19567;DHT22;9930;49.240;8.548;2023-04-06T08:27:39;10.30;56.10
19567;DHT22;9930;49.240;8.548;2023-04-06T08:30:05;10.30;56.10
19567;DHT22;9930;49.240;8.548;2023-04-06T08:32:31;10.40;56.10
19567;DHT22;9930;49.240;8.548;2023-04-06T08:34:59;10.50;56.00
19567;DHT22;9930;49.240;8.548;2023-04-06T08:37:25;10.60;55.90
19567;DHT22;9930;49.240;8.548;2023-04-06T08:39:51;10.70;56.00
19567;DHT22;9930;49.240;8.548;2023-04-06T08:42:20;10.80;56.00
19567;DHT22;9930;49.240;8.548;2023-04-06T08:44:48;10.90;55.80
19567;DHT22;9930;49.240;8.548;2023-04-06T08:47:16;11.00;55.60
19567;DHT22;9930;49.240;8.548;2023-04-06T08:49:44;11.10;55.50
19567;DHT22;9930;49.240;8.548;2023-04-06T08:52:12;11.20;55.70
19567;DHT22;9930;49.240;8.548;2023-04-06T08:54:38;11.30;55.60
19567;DHT22;9930;49.240;8.548;2023-04-06T08:57:05;11.40;55.50
19567;DHT22;9930;49.240;8.548;2023-04-06T08:59:34;11.50;55.40
19567;DHT22;9930;49.240;8.548;2023-04-06T09:02:04;11.60;55.20
19567;DHT22;9930;49.240;8.548;2023-04-06T09:04:33;11.70;55.10
19567;DHT22;9930;49.240;8.548;2023-04-06T09:07:03;11.80;55.20
19567;DHT22;9930;49.240;8.548;2023-04-06T09:09:29;11.90;55.10
19567;DHT22;9930;49.240;8.548;2023-04-06T09:11:57;12.00;54.90
19567;DHT22;9930;49.240;8.548;2023-04-06T09:14:37;12.20;54.80
19567;DHT22;9930;49.240;8.548;2023-04-06T09:17:05;12.20;54.50
19567;DHT22;9930;49.240;8.548;2023-04-06T09:19:34;12.30;54.60
19567;DHT22;9930;49.240;8.548;2023-04-06T09:22:11;12.40;54.50
19567;DHT22;9930;49.240;8.548;2023-04-06T09:24:47;12.50;54.40
19567;DHT22;9930;49.240;8.548;2023-04-06T09:27:16;12.60;54.30
19567;DHT22;9930;49.240;8.548;2023-04-06T09:29:43;12.70;54.30
19567;DHT22;9930;49.240;8.548;2023-04-06T09:32:10;12.80;53.90
19567;DHT22;9930;49.240;8.548;2023-04-06T09:34:39;12.90;53.60
19567;DHT22;9930;49.240;8.548;2023-04-06T09:37:16;12.90;53.50
19567;DHT22;9930;49.240;8.548;2023-04-06T09:39:44;13.00;53.50
19567;DHT22;9930;49.240;8.548;2023-04-06T09:42:22;13.10;53.70
19567;DHT22;9930;49.240;8.548;2023-04-06T09:44:50;13.20;53.50
19567;DHT22;9930;49.240;8.548;2023-04-06T09:47:18;13.20;52.90
19567;DHT22;9930;49.240;8.548;2023-04-06T09:49:47;13.30;52.90
19567;DHT22;9930;49.240;8.548;2023-04-06T09:52:26;13.40;52.90
19567;DHT22;9930;49.240;8.548;2023-04-06T09:55:01;13.50;52.90
19567;DHT22;9930;49.240;8.548;2023-04-06T09:57:50;13.60;52.90
19567;DHT22;9930;49.240;8.548;2023-04-06T10:00:27;13.70;52.50
19567;DHT22;9930;49.240;8.548;2023-04-06T10:03:22;13.90;52.90
19567;DHT22;9930;49.240;8.548;2023-04-06T10:06:03;13.90;52.20
19567;DHT22;9930;49.240;8.548;2023-04-06T10:08:39;14.10;52.60
19567;DHT22;9930;49.240;8.548;2023-04-06T10:11:15;14.20;52.40
19567;DHT22;9930;49.240;8.548;2023-04-06T10:13:41;14.30;52.10
19567;DHT22;9930;49.240;8.548;2023-04-06T10:16:13;14.40;52.20
19567;DHT22;9930;49.240;8.548;2023-04-06T10:18:56;14.50;51.60
19567;DHT22;9930;49.240;8.548;2023-04-06T10:21:32;14.60;51.30
19567;DHT22;9930;49.240;8.548;2023-04-06T10:24:07;14.70;51.40
19567;DHT22;9930;49.240;8.548;2023-04-06T10:26:41;14.70;51.00
19567;DHT22;9930;49.240;8.548;2023-04-06T10:29:09;14.80;50.80
19567;DHT22;9930;49.240;8.548;2023-04-06T10:31:42;14.90;50.40
19567;DHT22;9930;49.240;8.548;2023-04-06T10:34:11;14.90;50.60
19567;DHT22;9930;49.240;8.548;2023-04-06T10:36:39;15.00;50.80
19567;DHT22;9930;49.240;8.548;2023-04-06T10:39:05;15.00;50.70
19567;DHT22;9930;49.240;8.548;2023-04-06T10:41:34;15.20;50.50
19567;DHT22;9930;49.240;8.548;2023-04-06T10:44:01;15.20;50.00
19567;DHT22;9930;49.240;8.548;2023-04-06T10:46:32;15.30;50.00
19567;DHT22;9930;49.240;8.548;2023-04-06T10:49:11;15.40;49.30
19567;DHT22;9930;49.240;8.548;2023-04-06T10:51:40;15.50;49.40
19567;DHT22;9930;49.240;8.548;2023-04-06T10:54:06;15.60;49.90
19567;DHT22;9930;49.240;8.548;2023-04-06T10:56:38;15.70;49.20
19567;DHT22;9930;49.240;8.548;2023-04-06T10:59:05;15.80;48.90
19567;DHT22;9930;49.240;8.548;2023-04-06T11:01:32;15.90;48.70
19567;DHT22;9930;49.240;8.548;2023-04-06T11:04:00;15.90;48.60
19567;DHT22;9930;49.240;8.548;2023-04-06T11:06:30;16.00;48.50
19567;DHT22;9930;49.240;8.548;2023-04-06T11:09:04;16.10;47.90
19567;DHT22;9930;49.240;8.548;2023-04-06T11:11:29;16.20;48.00
19567;DHT22;9930;49.240;8.548;2023-04-06T11:13:57;16.20;48.00
19567;DHT22;9930;49.240;8.548;2023-04-06T11:16:30;16.20;47.50
19567;DHT22;9930;49.240;8.548;2023-04-06T11:19:04;16.20;47.60
19567;DHT22;9930;49.240;8.548;2023-04-06T11:21:41;16.30;47.60
19567;DHT22;9930;49.240;8.548;2023-04-06T11:24:24;16.30;47.30
19567;DHT22;9930;49.240;8.548;2023-04-06T11:26:57;16.40;47.30
19567;DHT22;9930;49.240;8.548;2023-04-06T11:29:28;16.40;47.30
19567;DHT22;9930;49.240;8.548;2023-04-06T11:32:04;16.50;47.10
19567;DHT22;9930;49.240;8.548;2023-04-06T11:34:35;16.50;46.70
19567;DHT22;9930;49.240;8.548;2023-04-06T11:37:10;16.60;46.80
19567;DHT22;9930;49.240;8.548;2023-04-06T11:40:07;16.60;46.40
19567;DHT22;9930;49.240;8.548;2023-04-06T11:42:34;16.60;46.20
19567;DHT22;9930;49.240;8.548;2023-04-06T11:45:01;16.70;46.30
19567;DHT22;9930;49.240;8.548;2023-04-06T11:47:34;16.70;46.00
19567;DHT22;9930;49.240;8.548;2023-04-06T11:50:15;16.80;46.20
19567;DHT22;9930;49.240;8.548;2023-04-06T11:52:42;16.70;46.60
19567;DHT22;9930;49.240;8.548;2023-04-06T11:55:17;16.80;45.30
19567;DHT22;9930;49.240;8.548;2023-04-06T11:57:44;16.80;44.80
19567;DHT22;9930;49.240;8.548;2023-04-06T12:00:13;16.70;45.10
19567;DHT22;9930;49.240;8.548;2023-04-06T12:02:40;16.70;45.40
19567;DHT22;9930;49.240;8.548;2023-04-06T12:05:15;16.70;45.30
19567;DHT22;9930;49.240;8.548;2023-04-06T12:07:41;16.70;45.40
19567;DHT22;9930;49.240;8.548;2023-04-06T12:10:12;16.70;44.90
19567;DHT22;9930;49.240;8.548;2023-04-06T12:12:38;16.70;44.90
19567;DHT22;9930;49.240;8.548;2023-04-06T12:15:07;16.80;45.00
19567;DHT22;9930;49.240;8.548;2023-04-06T12:17:33;16.90;45.00
19567;DHT22;9930;49.240;8.548;2023-04-06T12:20:01;16.90;45.00
19567;DHT22;9930;49.240;8.548;2023-04-06T12:22:34;16.90;44.70
19567;DHT22;9930;49.240;8.548;2023-04-06T12:25:00;17.00;44.90
19567;DHT22;9930;49.240;8.548;2023-04-06T12:27:28;17.00;44.60
19567;DHT22;9930;49.240;8.548;2023-04-06T12:29:56;17.10;44.40
19567;DHT22;9930;49.240;8.548;2023-04-06T12:32:27;17.20;44.20
19567;DHT22;9930;49.240;8.548;2023-04-06T12:34:55;17.20;43.70
19567;DHT22;9930;49.240;8.548;2023-04-06T12:37:21;17.20;43.50
19567;DHT22;9930;49.240;8.548;2023-04-06T12:39:49;17.20;43.70
19567;DHT22;9930;49.240;8.548;2023-04-06T12:42:15;17.20;43.40
19567;DHT22;9930;49.240;8.548;2023-04-06T12:44:41;17.20;43.10
19567;DHT22;9930;49.240;8.548;2023-04-06T12:47:10;17.20;43.10
19567;DHT22;9930;49.240;8.548;2023-04-06T12:49:36;17.30;42.70
19567;DHT22;9930;49.240;8.548;2023-04-06T12:52:02;17.30;43.10
19567;DHT22;9930;49.240;8.548;2023-04-06T12:54:29;17.30;42.80
19567;DHT22;9930;49.240;8.548;2023-04-06T12:56:55;17.40;42.90
19567;DHT22;9930;49.240;8.548;2023-04-06T12:59:25;17.40;42.50
19567;DHT22;9930;49.240;8.548;2023-04-06T13:01:51;17.50;42.50
19567;DHT22;9930;49.240;8.548;2023-04-06T13:04:17;17.50;42.30
19567;DHT22;9930;49.240;8.548;2023-04-06T13:06:46;17.50;42.30
19567;DHT22;9930;49.240;8.548;2023-04-06T13:09:16;17.50;42.30
19567;DHT22;9930;49.240;8.548;2023-04-06T13:11:42;17.60;42.30
19567;DHT22;9930;49.240;8.548;2023-04-06T13:14:08;17.60;42.30
19567;DHT22;9930;49.240;8.548;2023-04-06T13:16:42;17.60;42.20
19567;DHT22;9930;49.240;8.548;2023-04-06T13:19:11;17.60;42.10
19567;DHT22;9930;49.240;8.548;2023-04-06T13:21:41;17.60;42.00
19567;DHT22;9930;49.240;8.548;2023-04-06T13:24:09;17.70;41.80
19567;DHT22;9930;49.240;8.548;2023-04-06T13:26:36;17.70;41.70
19567;DHT22;9930;49.240;8.548;2023-04-06T13:29:06;17.70;41.60
19567;DHT22;9930;49.240;8.548;2023-04-06T13:31:32;17.70;41.20
19567;DHT22;9930;49.240;8.548;2023-04-06T13:34:01;17.70;41.10
19567;DHT22;9930;49.240;8.548;2023-04-06T13:36:27;17.60;40.80
19567;DHT22;9930;49.240;8.548;2023-04-06T13:38:55;17.60;41.00
19567;DHT22;9930;49.240;8.548;2023-04-06T13:41:23;17.60;40.90
19567;DHT22;9930;49.240;8.548;2023-04-06T13:43:53;17.60;40.90
19567;DHT22;9930;49.240;8.548;2023-04-06T13:46:23;17.50;40.80
19567;DHT22;9930;49.240;8.548;2023-04-06T13:48:51;17.50;40.70
19567;DHT22;9930;49.240;8.548;2023-04-06T13:51:20;17.40;40.60
19567;DHT22;9930;49.240;8.548;2023-04-06T13:53:48;17.40;40.70
19567;DHT22;9930;49.240;8.548;2023-04-06T13:56:17;17.40;40.80
19567;DHT22;9930;49.240;8.548;2023-04-06T13:58:43;17.30;40.70
19567;DHT22;9930;49.240;8.548;2023-04-06T14:01:09;17.30;40.70
19567;DHT22;9930;49.240;8.548;2023-04-06T14:03:35;17.30;40.60
19567;DHT22;9930;49.240;8.548;2023-04-06T14:06:09;17.30;40.80
19567;DHT22;9930;49.240;8.548;2023-04-06T14:08:41;17.30;40.80
19567;DHT22;9930;49.240;8.548;2023-04-06T14:11:13;17.30;40.70
19567;DHT22;9930;49.240;8.548;2023-04-06T14:13:40;17.30;40.50
19567;DHT22;9930;49.240;8.548;2023-04-06T14:16:07;17.40;40.70
19567;DHT22;9930;49.240;8.548;2023-04-06T14:18:38;17.40;40.70
19567;DHT22;9930;49.240;8.548;2023-04-06T14:21:04;17.40;41.20
19567;DHT22;9930;49.240;8.548;2023-04-06T14:23:33;17.40;40.50
19567;DHT22;9930;49.240;8.548;2023-04-06T14:26:07;17.50;40.40
19567;DHT22;9930;49.240;8.548;2023-04-06T14:28:35;17.50;40.10
19567;DHT22;9930;49.240;8.548;2023-04-06T14:31:10;17.50;40.30
19567;DHT22;9930;49.240;8.548;2023-04-06T14:33:42;17.50;39.70
19567;DHT22;9930;49.240;8.548;2023-04-06T14:36:09;17.50;39.70
19567;DHT22;9930;49.240;8.548;2023-04-06T14:38:36;17.60;39.60
19567;DHT22;9930;49.240;8.548;2023-04-06T14:41:05;17.50;39.50
19567;DHT22;9930;49.240;8.548;2023-04-06T14:43:34;17.50;39.40
19567;DHT22;9930;49.240;8.548;2023-04-06T14:46:00;17.50;39.30
19567;DHT22;9930;49.240;8.548;2023-04-06T14:48:27;17.50;39.40
19567;DHT22;9930;49.240;8.548;2023-04-06T14:50:57;17.50;39.40
19567;DHT22;9930;49.240;8.548;2023-04-06T14:53:26;17.50;39.20
19567;DHT22;9930;49.240;8.548;2023-04-06T14:55:52;17.50;39.30
19567;DHT22;9930;49.240;8.548;2023-04-06T14:58:21;17.50;39.30
19567;DHT22;9930;49.240;8.548;2023-04-06T15:00:48;17.50;38.90
19567;DHT22;9930;49.240;8.548;2023-04-06T15:03:20;17.50;39.10
19567;DHT22;9930;49.240;8.548;2023-04-06T15:05:48;17.50;38.90
19567;DHT22;9930;49.240;8.548;2023-04-06T15:08:16;17.50;38.80
19567;DHT22;9930;49.240;8.548;2023-04-06T15:10:42;17.50;38.80
19567;DHT22;9930;49.240;8.548;2023-04-06T15:13:11;17.50;38.60
19567;DHT22;9930;49.240;8.548;2023-04-06T15:15:42;17.40;38.40
19567;DHT22;9930;49.240;8.548;2023-04-06T15:18:11;17.50;38.70
19567;DHT22;9930;49.240;8.548;2023-04-06T15:20:40;17.40;38.50
19567;DHT22;9930;49.240;8.548;2023-04-06T15:23:07;17.40;38.60
19567;DHT22;9930;49.240;8.548;2023-04-06T15:25:33;17.40;38.50
19567;DHT22;9930;49.240;8.548;2023-04-06T15:27:59;17.40;38.30
19567;DHT22;9930;49.240;8.548;2023-04-06T15:30:29;17.40;38.60
19567;DHT22;9930;49.240;8.548;2023-04-06T15:32:57;17.40;38.60
19567;DHT22;9930;49.240;8.548;2023-04-06T15:35:29;17.30;38.50
19567;DHT22;9930;49.240;8.548;2023-04-06T15:37:58;17.30;38.60
19567;DHT22;9930;49.240;8.548;2023-04-06T15:40:24;17.30;38.40
19567;DHT22;9930;49.240;8.548;2023-04-06T15:42:50;17.30;38.50
19567;DHT22;9930;49.240;8.548;2023-04-06T15:45:16;17.20;38.50
19567;DHT22;9930;49.240;8.548;2023-04-06T15:47:45;17.20;38.30
19567;DHT22;9930;49.240;8.548;2023-04-06T15:50:14;17.20;38.30
19567;DHT22;9930;49.240;8.548;2023-04-06T15:52:40;17.20;38.40
19567;DHT22;9930;49.240;8.548;2023-04-06T15:55:11;17.10;38.20
19567;DHT22;9930;49.240;8.548;2023-04-06T15:57:40;17.10;38.10
19567;DHT22;9930;49.240;8.548;2023-04-06T16:00:09;17.10;38.20
19567;DHT22;9930;49.240;8.548;2023-04-06T16:02:35;17.00;38.30